sensor_id;sensor_type;location;lat;lon;timestamp;pressure;altitude;pressure_sealevel;temperature;humidity
46574;BME280;32299;53.366;-1.544;2022-11-20T00:00:39;98262.73;;;10.16;47.67
46574;BME280;32299;53.366;-1.544;2022-11-20T00:03:06;98255.61;;;10.22;47.22
46574;BME280;32299;53.366;-1.544;2022-11-20T00:05:33;98247.49;;;9.86;47.74
46574;BME280;32299;53.366;-1.544;2022-11-20T00:08:02;98245.39;;;9.69;47.74
46574;BME280;32299;53.366;-1.544;2022-11-20T00:10:29;98242.71;;;9.69;47.64
46574;BME280;32299;53.366;-1.544;2022-11-20T00:12:57;98239.20;;;9.86;47.65
46574;BME280;32299;53.366;-1.544;2022-11-20T00:15:25;98238.62;;;9.83;47.75
46574;BME280;32299;53.366;-1.544;2022-11-20T00:17:52;98235.18;;;10.06;47.70
46574;BME280;32299;53.366;-1.544;2022-11-20T00:20:19;98234.31;;;9.77;47.78
46574;BME280;32299;53.366;-1.544;2022-11-20T00:22:46;98232.55;;;9.63;47.44
46574;BME280;32299;53.366;-1.544;2022-11-20T00:25:14;98227.60;;;9.75;47.84
46574;BME280;32299;53.366;-1.544;2022-11-20T00:27:41;98227.20;;;9.73;47.88
46574;BME280;32299;53.366;-1.544;2022-11-20T00:30:09;98223.90;;;9.72;47.91
46574;BME280;32299;53.366;-1.544;2022-11-20T00:32:36;98217.02;;;9.71;47.81
46574;BME280;32299;53.366;-1.544;2022-11-20T00:35:04;98209.53;;;9.62;48.00
46574;BME280;32299;53.366;-1.544;2022-11-20T00:37:31;98205.45;;;9.98;47.59
46574;BME280;32299;53.366;-1.544;2022-11-20T00:39:58;98197.23;;;9.45;47.89
46574;BME280;32299;53.366;-1.544;2022-11-20T00:42:25;98193.45;;;9.94;47.69
46574;BME280;32299;53.366;-1.544;2022-11-20T00:44:53;98191.39;;;9.86;47.79
46574;BME280;32299;53.366;-1.544;2022-11-20T00:47:20;98194.89;;;9.70;47.71
46574;BME280;32299;53.366;-1.544;2022-11-20T00:49:47;98185.30;;;9.64;47.80
46574;BME280;32299;53.366;-1.544;2022-11-20T00:52:15;98179.29;;;9.64;47.90
46574;BME280;32299;53.366;-1.544;2022-11-20T00:54:42;98174.71;;;9.81;47.93
46574;BME280;32299;53.366;-1.544;2022-11-20T00:57:10;98175.89;;;9.42;47.80
46574;BME280;32299;53.366;-1.544;2022-11-20T00:59:37;98170.95;;;9.89;47.78
46574;BME280;32299;53.366;-1.544;2022-11-20T01:02:05;98166.38;;;9.45;47.62
46574;BME280;32299;53.366;-1.544;2022-11-20T01:04:32;98163.29;;;9.91;47.64
46574;BME280;32299;53.366;-1.544;2022-11-20T01:06:59;98158.41;;;9.39;47.65
46574;BME280;32299;53.366;-1.544;2022-11-20T01:09:27;98152.45;;;9.44;47.64
46574;BME280;32299;53.366;-1.544;2022-11-20T01:11:59;98146.23;;;9.51;47.43
46574;BME280;32299;53.366;-1.544;2022-11-20T01:14:27;98141.70;;;9.60;47.68
46574;BME280;32299;53.366;-1.544;2022-11-20T01:16:54;98139.61;;;9.38;47.67
46574;BME280;32299;53.366;-1.544;2022-11-20T01:19:23;98136.77;;;9.35;47.68
46574;BME280;32299;53.366;-1.544;2022-11-20T01:21:52;98132.69;;;9.59;47.62
46574;BME280;32299;53.366;-1.544;2022-11-20T01:24:20;98131.64;;;9.57;47.66
46574;BME280;32299;53.366;-1.544;2022-11-20T01:26:49;98125.20;;;9.66;47.52
46574;BME280;32299;53.366;-1.544;2022-11-20T01:29:20;98123.50;;;9.33;47.69
46574;BME280;32299;53.366;-1.544;2022-11-20T01:31:48;98122.90;;;9.59;47.59
46574;BME280;32299;53.366;-1.544;2022-11-20T01:34:17;98121.61;;;9.78;47.62
46574;BME280;32299;53.366;-1.544;2022-11-20T01:36:46;98111.50;;;9.52;47.69
46574;BME280;32299;53.366;-1.544;2022-11-20T01:39:15;98110.89;;;9.53;47.66
46574;BME280;32299;53.366;-1.544;2022-11-20T01:41:44;98106.59;;;9.82;47.54
46574;BME280;32299;53.366;-1.544;2022-11-20T01:44:13;98105.45;;;9.57;47.68
46574;BME280;32299;53.366;-1.544;2022-11-20T01:46:50;98102.41;;;9.77;47.72
46574;BME280;32299;53.366;-1.544;2022-11-20T01:49:23;98094.91;;;9.51;47.79
46574;BME280;32299;53.366;-1.544;2022-11-20T01:51:55;98086.81;;;9.77;47.66
46574;BME280;32299;53.366;-1.544;2022-11-20T01:54:28;98082.72;;;9.40;47.91
46574;BME280;32299;53.366;-1.544;2022-11-20T01:56:59;98079.58;;;9.63;47.92
46574;BME280;32299;53.366;-1.544;2022-11-20T01:59:28;98075.47;;;9.23;47.84
46574;BME280;32299;53.366;-1.544;2022-11-20T02:01:56;98070.60;;;9.68;47.84
46574;BME280;32299;53.366;-1.544;2022-11-20T02:04:24;98066.97;;;9.37;47.78
46574;BME280;32299;53.366;-1.544;2022-11-20T02:06:57;98064.41;;;9.60;47.88
46574;BME280;32299;53.366;-1.544;2022-11-20T02:09:26;98059.04;;;9.74;47.63
46574;BME280;32299;53.366;-1.544;2022-11-20T02:11:53;98060.21;;;9.58;48.01
46574;BME280;32299;53.366;-1.544;2022-11-20T02:14:22;98060.04;;;9.43;47.89
46574;BME280;32299;53.366;-1.544;2022-11-20T02:16:50;98059.92;;;9.68;47.77
46574;BME280;32299;53.366;-1.544;2022-11-20T02:19:23;98053.99;;;9.41;47.93
46574;BME280;32299;53.366;-1.544;2022-11-20T02:21:58;98049.20;;;9.40;47.90
46574;BME280;32299;53.366;-1.544;2022-11-20T02:24:28;98042.26;;;9.65;47.89
46574;BME280;32299;53.366;-1.544;2022-11-20T02:26:58;98032.95;;;9.48;47.77
46574;BME280;32299;53.366;-1.544;2022-11-20T02:29:30;98023.40;;;9.47;47.79
46574;BME280;32299;53.366;-1.544;2022-11-20T02:31:59;98018.69;;;9.48;47.63
46574;BME280;32299;53.366;-1.544;2022-11-20T02:34:27;98015.08;;;9.46;47.76
46574;BME280;32299;53.366;-1.544;2022-11-20T02:36:54;98008.43;;;9.65;47.81
46574;BME280;32299;53.366;-1.544;2022-11-20T02:39:24;98008.85;;;9.70;47.76
46574;BME280;32299;53.366;-1.544;2022-11-20T02:41:53;98004.08;;;9.67;47.79
46574;BME280;32299;53.366;-1.544;2022-11-20T02:44:20;98001.12;;;9.77;47.52
46574;BME280;32299;53.366;-1.544;2022-11-20T02:46:47;97992.05;;;9.19;47.84
46574;BME280;32299;53.366;-1.544;2022-11-20T02:49:15;97989.46;;;9.63;47.87
46574;BME280;32299;53.366;-1.544;2022-11-20T02:51:42;97981.77;;;9.45;47.77
46574;BME280;32299;53.366;-1.544;2022-11-20T02:54:09;97975.23;;;9.64;47.81
46574;BME280;32299;53.366;-1.544;2022-11-20T02:56:38;97972.73;;;9.59;47.82
46574;BME280;32299;53.366;-1.544;2022-11-20T02:59:06;97968.52;;;9.68;47.76
46574;BME280;32299;53.366;-1.544;2022-11-20T03:01:33;97963.50;;;9.61;47.85
46574;BME280;32299;53.366;-1.544;2022-11-20T03:04:00;97958.69;;;9.62;47.90
46574;BME280;32299;53.366;-1.544;2022-11-20T03:06:28;97954.30;;;9.64;47.74
46574;BME280;32299;53.366;-1.544;2022-11-20T03:08:55;97954.20;;;9.67;47.84
46574;BME280;32299;53.366;-1.544;2022-11-20T03:11:21;97948.84;;;9.34;48.02
46574;BME280;32299;53.366;-1.544;2022-11-20T03:13:48;97945.96;;;9.36;47.94
46574;BME280;32299;53.366;-1.544;2022-11-20T03:16:17;97940.31;;;9.58;47.90
46574;BME280;32299;53.366;-1.544;2022-11-20T03:18:45;97938.61;;;9.57;47.93
46574;BME280;32299;53.366;-1.544;2022-11-20T03:21:14;97936.03;;;9.66;47.73
46574;BME280;32299;53.366;-1.544;2022-11-20T03:23:42;97931.80;;;9.35;47.89
46574;BME280;32299;53.366;-1.544;2022-11-20T03:26:11;97928.00;;;9.53;47.98
46574;BME280;32299;53.366;-1.544;2022-11-20T03:28:39;97919.88;;;9.49;47.98
46574;BME280;32299;53.366;-1.544;2022-11-20T03:31:08;97912.87;;;9.50;48.00
46574;BME280;32299;53.366;-1.544;2022-11-20T03:33:36;97906.25;;;9.40;47.77
46574;BME280;32299;53.366;-1.544;2022-11-20T03:36:05;97900.83;;;9.52;47.98
46574;BME280;32299;53.366;-1.544;2022-11-20T03:38:33;97894.31;;;9.54;47.85
46574;BME280;32299;53.366;-1.544;2022-11-20T03:41:02;97886.12;;;9.41;48.10
46574;BME280;32299;53.366;-1.544;2022-11-20T03:43:29;97873.70;;;9.38;48.23
46574;BME280;32299;53.366;-1.544;2022-11-20T03:45:56;97873.81;;;9.44;48.12
46574;BME280;32299;53.366;-1.544;2022-11-20T03:48:23;97868.28;;;9.38;48.21
46574;BME280;32299;53.366;-1.544;2022-11-20T03:50:50;97867.61;;;9.43;48.16
46574;BME280;32299;53.366;-1.544;2022-11-20T03:53:18;97857.46;;;9.45;48.11
46574;BME280;32299;53.366;-1.544;2022-11-20T03:55:50;97854.51;;;9.37;48.31
46574;BME280;32299;53.366;-1.544;2022-11-20T03:58:17;97846.64;;;9.40;48.30
46574;BME280;32299;53.366;-1.544;2022-11-20T04:00:45;97844.53;;;9.40;48.29
46574;BME280;32299;53.366;-1.544;2022-11-20T04:03:12;97843.85;;;9.44;48.28
46574;BME280;32299;53.366;-1.544;2022-11-20T04:05:40;97839.15;;;9.48;48.19
46574;BME280;32299;53.366;-1.544;2022-11-20T04:08:07;97837.73;;;9.47;48.21
46574;BME280;32299;53.366;-1.544;2022-11-20T04:10:34;97833.00;;;9.52;48.08
46574;BME280;32299;53.366;-1.544;2022-11-20T04:13:02;97834.68;;;9.44;48.31
46574;BME280;32299;53.366;-1.544;2022-11-20T04:15:29;97829.78;;;9.37;48.46
46574;BME280;32299;53.366;-1.544;2022-11-20T04:17:56;97826.45;;;9.41;48.38
46574;BME280;32299;53.366;-1.544;2022-11-20T04:20:23;97823.55;;;9.47;48.36
46574;BME280;32299;53.366;-1.544;2022-11-20T04:22:53;97817.03;;;9.49;48.30
46574;BME280;32299;53.366;-1.544;2022-11-20T04:25:20;97811.61;;;9.59;47.87
46574;BME280;32299;53.366;-1.544;2022-11-20T04:27:47;97809.23;;;9.49;48.41
46574;BME280;32299;53.366;-1.544;2022-11-20T04:30:14;97804.31;;;9.38;48.58
46574;BME280;32299;53.366;-1.544;2022-11-20T04:32:41;97800.84;;;9.41;48.56
46574;BME280;32299;53.366;-1.544;2022-11-20T04:35:08;97800.07;;;9.16;48.62
46574;BME280;32299;53.366;-1.544;2022-11-20T04:37:35;97800.26;;;9.46;48.48
46574;BME280;32299;53.366;-1.544;2022-11-20T04:40:03;97799.97;;;9.42;48.57
46574;BME280;32299;53.366;-1.544;2022-11-20T04:42:30;97796.56;;;9.14;48.78
46574;BME280;32299;53.366;-1.544;2022-11-20T04:44:57;97793.19;;;9.36;48.76
46574;BME280;32299;53.366;-1.544;2022-11-20T04:47:24;97799.36;;;9.42;48.67
46574;BME280;32299;53.366;-1.544;2022-11-20T04:49:51;97797.17;;;9.20;48.71
46574;BME280;32299;53.366;-1.544;2022-11-20T04:52:18;97798.63;;;9.41;48.76
46574;BME280;32299;53.366;-1.544;2022-11-20T04:54:45;97795.51;;;9.42;48.70
46574;BME280;32299;53.366;-1.544;2022-11-20T04:57:14;97786.26;;;9.12;48.84
46574;BME280;32299;53.366;-1.544;2022-11-20T04:59:41;97788.82;;;9.37;48.88
46574;BME280;32299;53.366;-1.544;2022-11-20T05:02:09;97790.78;;;9.51;48.69
46574;BME280;32299;53.366;-1.544;2022-11-20T05:04:37;97796.57;;;9.35;48.95
46574;BME280;32299;53.366;-1.544;2022-11-20T05:07:04;97793.53;;;9.38;48.84
46574;BME280;32299;53.366;-1.544;2022-11-20T05:09:32;97791.34;;;9.41;48.73
46574;BME280;32299;53.366;-1.544;2022-11-20T05:12:00;97800.31;;;9.38;48.98
46574;BME280;32299;53.366;-1.544;2022-11-20T05:14:26;97798.40;;;9.25;48.82
46574;BME280;32299;53.366;-1.544;2022-11-20T05:16:53;97796.59;;;9.47;48.83
46574;BME280;32299;53.366;-1.544;2022-11-20T05:19:21;97800.37;;;9.49;48.79
46574;BME280;32299;53.366;-1.544;2022-11-20T05:21:47;97803.98;;;9.20;48.91
46574;BME280;32299;53.366;-1.544;2022-11-20T05:24:14;97803.31;;;9.26;48.87
46574;BME280;32299;53.366;-1.544;2022-11-20T05:26:42;97805.37;;;9.51;48.90
46574;BME280;32299;53.366;-1.544;2022-11-20T05:29:10;97797.16;;;9.39;48.77
46574;BME280;32299;53.366;-1.544;2022-11-20T05:31:39;97793.33;;;9.53;48.82
46574;BME280;32299;53.366;-1.544;2022-11-20T05:34:07;97790.59;;;9.59;48.74
46574;BME280;32299;53.366;-1.544;2022-11-20T05:36:34;97788.05;;;9.37;48.79
46574;BME280;32299;53.366;-1.544;2022-11-20T05:39:01;97788.37;;;9.59;48.82
46574;BME280;32299;53.366;-1.544;2022-11-20T05:41:28;97780.73;;;9.61;48.82
46574;BME280;32299;53.366;-1.544;2022-11-20T05:43:56;97775.76;;;9.40;48.77
46574;BME280;32299;53.366;-1.544;2022-11-20T05:46:23;97775.31;;;9.68;48.72
46574;BME280;32299;53.366;-1.544;2022-11-20T05:48:50;97766.16;;;9.47;48.70
46574;BME280;32299;53.366;-1.544;2022-11-20T05:51:18;97769.63;;;9.30;48.62
46574;BME280;32299;53.366;-1.544;2022-11-20T05:53:46;97764.75;;;9.51;48.67
46574;BME280;32299;53.366;-1.544;2022-11-20T05:56:15;97760.42;;;9.73;48.69
46574;BME280;32299;53.366;-1.544;2022-11-20T05:58:43;97758.67;;;9.75;48.57
46574;BME280;32299;53.366;-1.544;2022-11-20T06:01:12;97752.16;;;9.75;48.62
46574;BME280;32299;53.366;-1.544;2022-11-20T06:03:41;97750.83;;;9.79;48.61
46574;BME280;32299;53.366;-1.544;2022-11-20T06:06:09;97748.77;;;9.38;48.55
46574;BME280;32299;53.366;-1.544;2022-11-20T06:08:36;97744.10;;;9.67;48.48
46574;BME280;32299;53.366;-1.544;2022-11-20T06:11:04;97744.15;;;9.43;48.44
46574;BME280;32299;53.366;-1.544;2022-11-20T06:13:32;97738.87;;;9.42;48.49
46574;BME280;32299;53.366;-1.544;2022-11-20T06:15:59;97745.00;;;9.70;48.41
46574;BME280;32299;53.366;-1.544;2022-11-20T06:18:28;97736.16;;;9.49;48.40
46574;BME280;32299;53.366;-1.544;2022-11-20T06:21:01;97731.77;;;9.88;48.52
46574;BME280;32299;53.366;-1.544;2022-11-20T06:23:29;97732.78;;;9.69;48.50
46574;BME280;32299;53.366;-1.544;2022-11-20T06:25:58;97729.23;;;9.71;48.47
46574;BME280;32299;53.366;-1.544;2022-11-20T06:28:28;97724.00;;;9.95;48.45
46574;BME280;32299;53.366;-1.544;2022-11-20T06:30:55;97727.35;;;9.72;48.43
46574;BME280;32299;53.366;-1.544;2022-11-20T06:33:22;97723.44;;;9.74;48.46
46574;BME280;32299;53.366;-1.544;2022-11-20T06:35:49;97720.70;;;9.54;48.41
46574;BME280;32299;53.366;-1.544;2022-11-20T06:38:16;97728.34;;;9.97;48.44
46574;BME280;32299;53.366;-1.544;2022-11-20T06:40:44;97723.99;;;9.73;48.41
46574;BME280;32299;53.366;-1.544;2022-11-20T06:43:11;97719.13;;;9.51;48.43
46574;BME280;32299;53.366;-1.544;2022-11-20T06:45:37;97721.60;;;9.52;48.41
46574;BME280;32299;53.366;-1.544;2022-11-20T06:48:05;97714.66;;;9.77;48.40
46574;BME280;32299;53.366;-1.544;2022-11-20T06:50:32;97712.84;;;9.78;48.37
46574;BME280;32299;53.366;-1.544;2022-11-20T06:53:01;97714.06;;;9.85;48.22
46574;BME280;32299;53.366;-1.544;2022-11-20T06:55:28;97712.39;;;9.82;48.33
46574;BME280;32299;53.366;-1.544;2022-11-20T06:57:55;97708.07;;;9.57;48.36
46574;BME280;32299;53.366;-1.544;2022-11-20T07:00:23;97711.21;;;10.04;48.37
46574;BME280;32299;53.366;-1.544;2022-11-20T07:02:50;97710.36;;;9.56;48.40
46574;BME280;32299;53.366;-1.544;2022-11-20T07:05:17;97711.07;;;9.80;48.39
46574;BME280;32299;53.366;-1.544;2022-11-20T07:07:44;97718.36;;;9.59;48.36
46574;BME280;32299;53.366;-1.544;2022-11-20T07:10:12;97710.16;;;9.50;48.45
46574;BME280;32299;53.366;-1.544;2022-11-20T07:12:39;97711.18;;;9.57;48.39
46574;BME280;32299;53.366;-1.544;2022-11-20T07:15:07;97710.43;;;9.54;48.40
46574;BME280;32299;53.366;-1.544;2022-11-20T07:17:34;97710.92;;;9.76;48.29
46574;BME280;32299;53.366;-1.544;2022-11-20T07:20:01;97715.56;;;9.62;48.14
46574;BME280;32299;53.366;-1.544;2022-11-20T07:22:28;97720.96;;;9.73;48.33
46574;BME280;32299;53.366;-1.544;2022-11-20T07:24:55;97733.04;;;9.78;48.28
46574;BME280;32299;53.366;-1.544;2022-11-20T07:27:22;97741.05;;;9.76;48.26
46574;BME280;32299;53.366;-1.544;2022-11-20T07:29:50;97739.85;;;9.93;48.41
46574;BME280;32299;53.366;-1.544;2022-11-20T07:32:17;97740.08;;;9.74;48.33
46574;BME280;32299;53.366;-1.544;2022-11-20T07:34:45;97738.08;;;9.75;48.16
46574;BME280;32299;53.366;-1.544;2022-11-20T07:37:11;97741.28;;;9.99;48.31
46574;BME280;32299;53.366;-1.544;2022-11-20T07:39:38;97745.82;;;9.95;48.37
46574;BME280;32299;53.366;-1.544;2022-11-20T07:42:06;97743.48;;;9.71;48.41
46574;BME280;32299;53.366;-1.544;2022-11-20T07:44:34;97743.41;;;9.50;48.40
46574;BME280;32299;53.366;-1.544;2022-11-20T07:47:01;97743.58;;;9.74;48.27
46574;BME280;32299;53.366;-1.544;2022-11-20T07:49:30;97743.52;;;9.91;48.47
46574;BME280;32299;53.366;-1.544;2022-11-20T07:51:57;97752.40;;;9.48;48.49
46574;BME280;32299;53.366;-1.544;2022-11-20T07:54:24;97758.71;;;9.48;48.46
46574;BME280;32299;53.366;-1.544;2022-11-20T07:56:51;97765.65;;;9.77;48.38
46574;BME280;32299;53.366;-1.544;2022-11-20T07:59:18;97770.62;;;9.72;48.53
46574;BME280;32299;53.366;-1.544;2022-11-20T08:01:45;97778.99;;;9.53;48.41
46574;BME280;32299;53.366;-1.544;2022-11-20T08:04:13;97785.75;;;10.01;48.41
46574;BME280;32299;53.366;-1.544;2022-11-20T08:06:40;97797.01;;;10.00;48.49
46574;BME280;32299;53.366;-1.544;2022-11-20T08:09:07;97793.53;;;9.65;48.77
46574;BME280;32299;53.366;-1.544;2022-11-20T08:11:35;97790.67;;;9.92;48.79
46574;BME280;32299;53.366;-1.544;2022-11-20T08:14:02;97787.93;;;9.52;48.79
46574;BME280;32299;53.366;-1.544;2022-11-20T08:16:29;97798.39;;;9.50;48.92
46574;BME280;32299;53.366;-1.544;2022-11-20T08:18:56;97804.38;;;9.77;48.90
46574;BME280;32299;53.366;-1.544;2022-11-20T08:21:23;97813.99;;;10.00;48.95
46574;BME280;32299;53.366;-1.544;2022-11-20T08:23:50;97811.28;;;10.11;48.77
46574;BME280;32299;53.366;-1.544;2022-11-20T08:26:17;97797.99;;;9.60;48.84
46574;BME280;32299;53.366;-1.544;2022-11-20T08:28:44;97796.39;;;9.78;49.10
46574;BME280;32299;53.366;-1.544;2022-11-20T08:31:11;97794.63;;;9.76;49.17
46574;BME280;32299;53.366;-1.544;2022-11-20T08:33:38;97792.58;;;10.07;49.08
46574;BME280;32299;53.366;-1.544;2022-11-20T08:36:06;97799.34;;;9.88;49.05
46574;BME280;32299;53.366;-1.544;2022-11-20T08:38:33;97802.59;;;9.94;48.95
46574;BME280;32299;53.366;-1.544;2022-11-20T08:41:01;97798.44;;;9.98;48.91
46574;BME280;32299;53.366;-1.544;2022-11-20T08:43:29;97798.86;;;9.96;49.02
46574;BME280;32299;53.366;-1.544;2022-11-20T08:45:57;97801.87;;;10.01;48.97
46574;BME280;32299;53.366;-1.544;2022-11-20T08:48:25;97810.03;;;10.02;49.01
46574;BME280;32299;53.366;-1.544;2022-11-20T08:50:52;97813.50;;;10.06;48.96
46574;BME280;32299;53.366;-1.544;2022-11-20T08:53:19;97817.42;;;9.88;48.92
46574;BME280;32299;53.366;-1.544;2022-11-20T08:55:46;97822.29;;;9.68;48.85
46574;BME280;32299;53.366;-1.544;2022-11-20T08:58:13;97821.87;;;9.94;48.85
46574;BME280;32299;53.366;-1.544;2022-11-20T09:00:40;97826.18;;;9.93;48.95
46574;BME280;32299;53.366;-1.544;2022-11-20T09:03:07;97820.31;;;10.04;48.75
46574;BME280;32299;53.366;-1.544;2022-11-20T09:05:34;97816.73;;;10.00;48.96
46574;BME280;32299;53.366;-1.544;2022-11-20T09:08:01;97808.40;;;10.20;49.04
46574;BME280;32299;53.366;-1.544;2022-11-20T09:10:29;97816.88;;;10.24;49.06
46574;BME280;32299;53.366;-1.544;2022-11-20T09:12:56;97818.18;;;9.82;49.01
46574;BME280;32299;53.366;-1.544;2022-11-20T09:15:24;97828.77;;;10.10;49.02
46574;BME280;32299;53.366;-1.544;2022-11-20T09:17:52;97830.99;;;10.12;49.07
46574;BME280;32299;53.366;-1.544;2022-11-20T09:20:19;97834.50;;;10.14;49.05
46574;BME280;32299;53.366;-1.544;2022-11-20T09:22:47;97838.64;;;10.19;49.04
46574;BME280;32299;53.366;-1.544;2022-11-20T09:25:14;97842.78;;;10.24;48.96
46574;BME280;32299;53.366;-1.544;2022-11-20T09:27:41;97842.02;;;10.20;49.06
46574;BME280;32299;53.366;-1.544;2022-11-20T09:30:09;97840.84;;;10.25;49.01
46574;BME280;32299;53.366;-1.544;2022-11-20T09:32:38;97839.01;;;10.02;48.96
46574;BME280;32299;53.366;-1.544;2022-11-20T09:35:05;97841.49;;;10.31;48.99
46574;BME280;32299;53.366;-1.544;2022-11-20T09:37:32;97841.03;;;10.57;48.96
46574;BME280;32299;53.366;-1.544;2022-11-20T09:40:00;97848.97;;;10.38;48.98
46574;BME280;32299;53.366;-1.544;2022-11-20T09:42:34;97848.78;;;10.44;49.04
46574;BME280;32299;53.366;-1.544;2022-11-20T09:45:15;97850.25;;;10.20;49.20
46574;BME280;32299;53.366;-1.544;2022-11-20T09:47:59;97843.00;;;10.49;49.36
46574;BME280;32299;53.366;-1.544;2022-11-20T09:50:33;97837.97;;;10.56;49.41
46574;BME280;32299;53.366;-1.544;2022-11-20T09:53:12;97832.92;;;10.62;49.53
46574;BME280;32299;53.366;-1.544;2022-11-20T09:55:40;97837.69;;;10.18;49.63
46574;BME280;32299;53.366;-1.544;2022-11-20T09:58:14;97838.55;;;10.51;49.66
46574;BME280;32299;53.366;-1.544;2022-11-20T10:00:43;97832.71;;;10.34;49.76
46574;BME280;32299;53.366;-1.544;2022-11-20T10:03:16;97834.74;;;10.63;49.78
46574;BME280;32299;53.366;-1.544;2022-11-20T10:05:47;97833.12;;;10.48;49.73
46574;BME280;32299;53.366;-1.544;2022-11-20T10:08:21;97829.08;;;11.05;49.76
46574;BME280;32299;53.366;-1.544;2022-11-20T10:10:53;97826.95;;;10.87;49.78
46574;BME280;32299;53.366;-1.544;2022-11-20T10:13:33;97825.17;;;10.73;50.03
46574;BME280;32299;53.366;-1.544;2022-11-20T10:16:16;97819.90;;;11.12;50.21
46574;BME280;32299;53.366;-1.544;2022-11-20T10:19:00;97821.46;;;11.10;50.43
46574;BME280;32299;53.366;-1.544;2022-11-20T10:21:38;97827.91;;;11.27;50.73
46574;BME280;32299;53.366;-1.544;2022-11-20T10:24:40;97837.06;;;11.48;51.00
46574;BME280;32299;53.366;-1.544;2022-11-20T10:27:22;97839.55;;;11.70;50.93
46574;BME280;32299;53.366;-1.544;2022-11-20T10:30:02;97832.80;;;11.86;51.02
46574;BME280;32299;53.366;-1.544;2022-11-20T10:32:35;97834.08;;;11.76;51.06
46574;BME280;32299;53.366;-1.544;2022-11-20T10:35:07;97833.34;;;11.93;51.15
46574;BME280;32299;53.366;-1.544;2022-11-20T10:37:43;97835.21;;;12.08;51.14
46574;BME280;32299;53.366;-1.544;2022-11-20T10:40:21;97835.90;;;12.27;51.21
46574;BME280;32299;53.366;-1.544;2022-11-20T10:42:53;97828.98;;;12.23;51.26
46574;BME280;32299;53.366;-1.544;2022-11-20T10:45:36;97826.60;;;12.18;51.39
46574;BME280;32299;53.366;-1.544;2022-11-20T10:48:14;97817.14;;;12.61;51.45
46574;BME280;32299;53.366;-1.544;2022-11-20T10:50:54;97814.72;;;12.86;51.47
46574;BME280;32299;53.366;-1.544;2022-11-20T10:53:36;97807.21;;;13.06;51.43
46574;BME280;32299;53.366;-1.544;2022-11-20T10:56:11;97805.18;;;13.23;51.48
46574;BME280;32299;53.366;-1.544;2022-11-20T10:58:48;97807.29;;;13.50;51.42
46574;BME280;32299;53.366;-1.544;2022-11-20T11:01:21;97805.77;;;13.22;51.22
46574;BME280;32299;53.366;-1.544;2022-11-20T11:03:48;97803.33;;;13.66;51.39
46574;BME280;32299;53.366;-1.544;2022-11-20T11:06:21;97804.47;;;13.57;51.23
46574;BME280;32299;53.366;-1.544;2022-11-20T11:08:53;97794.34;;;13.76;50.71
46574;BME280;32299;53.366;-1.544;2022-11-20T11:11:25;97798.09;;;13.93;50.70
46574;BME280;32299;53.366;-1.544;2022-11-20T11:14:04;97798.55;;;14.06;49.46
46574;BME280;32299;53.366;-1.544;2022-11-20T11:16:32;97794.69;;;14.11;50.26
46574;BME280;32299;53.366;-1.544;2022-11-20T11:19:11;97792.74;;;14.37;49.85
46574;BME280;32299;53.366;-1.544;2022-11-20T11:21:39;97801.25;;;14.45;49.37
46574;BME280;32299;53.366;-1.544;2022-11-20T11:24:20;97799.52;;;14.42;49.41
46574;BME280;32299;53.366;-1.544;2022-11-20T11:26:55;97802.78;;;14.32;49.14
46574;BME280;32299;53.366;-1.544;2022-11-20T11:29:23;97809.87;;;14.73;48.32
46574;BME280;32299;53.366;-1.544;2022-11-20T11:31:50;97811.73;;;14.57;48.57
46574;BME280;32299;53.366;-1.544;2022-11-20T11:34:17;97814.43;;;14.64;48.74
46574;BME280;32299;53.366;-1.544;2022-11-20T11:36:58;97815.25;;;14.74;48.59
46574;BME280;32299;53.366;-1.544;2022-11-20T11:39:27;97818.12;;;14.85;48.41
46574;BME280;32299;53.366;-1.544;2022-11-20T11:41:55;97814.14;;;14.94;48.43
46574;BME280;32299;53.366;-1.544;2022-11-20T11:44:28;97807.47;;;15.03;48.37
46574;BME280;32299;53.366;-1.544;2022-11-20T11:46:58;97802.72;;;14.86;47.89
46574;BME280;32299;53.366;-1.544;2022-11-20T11:49:25;97798.62;;;14.95;47.92
46574;BME280;32299;53.366;-1.544;2022-11-20T11:52:02;97799.64;;;14.80;47.79
46574;BME280;32299;53.366;-1.544;2022-11-20T11:54:36;97793.36;;;15.04;47.58
46574;BME280;32299;53.366;-1.544;2022-11-20T11:57:12;97790.48;;;15.20;47.28
46574;BME280;32299;53.366;-1.544;2022-11-20T11:59:52;97791.44;;;14.92;47.28
46574;BME280;32299;53.366;-1.544;2022-11-20T12:02:31;97787.38;;;14.98;47.22
46574;BME280;32299;53.366;-1.544;2022-11-20T12:05:03;97783.47;;;15.26;47.19
46574;BME280;32299;53.366;-1.544;2022-11-20T12:07:41;97781.79;;;15.29;47.07
46574;BME280;32299;53.366;-1.544;2022-11-20T12:10:17;97782.16;;;15.24;46.80
46574;BME280;32299;53.366;-1.544;2022-11-20T12:12:50;97784.75;;;15.22;46.36
46574;BME280;32299;53.366;-1.544;2022-11-20T12:15:25;97787.28;;;14.91;46.12
46574;BME280;32299;53.366;-1.544;2022-11-20T12:17:53;97783.18;;;15.05;45.93
46574;BME280;32299;53.366;-1.544;2022-11-20T12:20:22;97778.58;;;14.94;45.63
46574;BME280;32299;53.366;-1.544;2022-11-20T12:22:57;97770.17;;;14.85;45.48
46574;BME280;32299;53.366;-1.544;2022-11-20T12:25:31;97762.21;;;14.74;45.30
46574;BME280;32299;53.366;-1.544;2022-11-20T12:28:10;97768.56;;;14.67;45.24
46574;BME280;32299;53.366;-1.544;2022-11-20T12:30:57;97767.75;;;14.52;45.22
46574;BME280;32299;53.366;-1.544;2022-11-20T12:33:44;97768.01;;;14.71;44.82
46574;BME280;32299;53.366;-1.544;2022-11-20T12:36:22;97774.33;;;14.53;44.63
46574;BME280;32299;53.366;-1.544;2022-11-20T12:39:24;97780.55;;;14.35;44.32
46574;BME280;32299;53.366;-1.544;2022-11-20T12:42:39;97787.08;;;14.92;43.93
46574;BME280;32299;53.366;-1.544;2022-11-20T12:45:25;97780.18;;;14.07;43.67
46574;BME280;32299;53.366;-1.544;2022-11-20T12:48:09;97781.58;;;14.13;43.86
46574;BME280;32299;53.366;-1.544;2022-11-20T12:50:49;97776.07;;;14.02;43.94
46574;BME280;32299;53.366;-1.544;2022-11-20T12:53:27;97774.49;;;13.92;44.06
46574;BME280;32299;53.366;-1.544;2022-11-20T12:56:05;97778.68;;;13.62;44.05
46574;BME280;32299;53.366;-1.544;2022-11-20T12:58:49;97779.73;;;13.79;44.24
46574;BME280;32299;53.366;-1.544;2022-11-20T13:01:25;97780.10;;;13.69;44.05
46574;BME280;32299;53.366;-1.544;2022-11-20T13:04:00;97777.51;;;13.61;44.07
46574;BME280;32299;53.366;-1.544;2022-11-20T13:06:32;97779.29;;;13.53;44.31
46574;BME280;32299;53.366;-1.544;2022-11-20T13:09:00;97783.97;;;13.43;44.53
46574;BME280;32299;53.366;-1.544;2022-11-20T13:11:33;97789.85;;;13.42;44.35